Time;durP1;ratioP1;P1;durP2;ratioP2;P2;SDS_P1;SDS_P2;PMS_P1;PMS_P2;Temp;Humidity;BMP_temperature;BMP_pressure;BME280_temperature;BME280_humidity;BME280_pressure;Samples;Min_cycle;Max_cycle;Signal;HPM_P1;HPM_P2
2022/09/29 00:00:38;;;;;;;16.98;5.55;;;;;;;14.83;100.00;98722.13;4958583;29;20032;-84
2022/09/29 00:03:04;;;;;;;15.77;5.60;;;;;;;14.81;100.00;98724.22;4958894;29;20051;-84
2022/09/29 00:05:30;;;;;;;19.02;4.43;;;;;;;14.66;100.00;98718.53;4955748;29;20046;-85
2022/09/29 00:07:56;;;;;;;12.75;3.65;;;;;;;14.60;100.00;98724.00;4939992;29;20036;-84
2022/09/29 00:10:22;;;;;;;18.38;3.95;;;;;;;14.53;100.00;98718.78;4938651;29;20028;-85
2022/09/29 00:12:49;;;;;;;12.15;3.33;;;;;;;14.71;100.00;98705.34;4938318;29;20031;-85
2022/09/29 00:15:15;;;;;;;16.27;4.57;;;;;;;14.88;100.00;98711.56;4938380;29;20032;-85
2022/09/29 00:17:40;;;;;;;20.77;4.07;;;;;;;14.96;100.00;98710.41;4938451;29;20504;-86
2022/09/29 00:20:07;;;;;;;19.90;3.58;;;;;;;15.12;100.00;98711.53;4920771;29;20091;-84
2022/09/29 00:22:33;;;;;;;12.73;3.55;;;;;;;15.10;100.00;98713.63;4937827;29;20040;-86
2022/09/29 00:24:58;;;;;;;9.50;2.45;;;;;;;15.17;100.00;98711.66;4937651;29;20059;-83
2022/09/29 00:27:24;;;;;;;10.18;2.60;;;;;;;14.88;100.00;98708.91;4937965;29;20016;-85
2022/09/29 00:29:50;;;;;;;12.60;3.10;;;;;;;14.79;100.00;98707.63;4937786;29;20071;-86
2022/09/29 00:32:16;;;;;;;11.73;2.65;;;;;;;14.78;100.00;98702.56;4937406;29;20505;-84
2022/09/29 00:34:42;;;;;;;11.23;2.28;;;;;;;14.80;100.00;98695.94;4937392;29;20067;-83
2022/09/29 00:37:07;;;;;;;13.13;2.67;;;;;;;14.77;100.00;98707.06;4920412;29;20133;-87
2022/09/29 00:39:33;;;;;;;6.70;2.45;;;;;;;14.72;100.00;98704.28;4937410;29;20040;-86
2022/09/29 00:41:58;;;;;;;12.52;2.90;;;;;;;14.55;100.00;98708.69;4937794;29;20083;-87
2022/09/29 00:44:52;;;;;;;13.35;2.85;;;;;;;14.49;100.00;98706.94;4938163;29;20489;-86
2022/09/29 00:47:18;;;;;;;13.65;2.60;;;;;;;14.46;100.00;98700.22;4937313;29;20078;-87
2022/09/29 00:49:45;;;;;;;9.60;2.25;;;;;;;14.44;100.00;98698.84;4937269;29;20157;-86
2022/09/29 00:52:21;;;;;;;10.32;2.38;;;;;;;14.49;100.00;98714.94;4937370;29;20111;-85
2022/09/29 00:55:08;;;;;;;14.50;2.47;;;;;;;14.56;100.00;98712.97;4937717;29;20443;-85
2022/09/29 00:57:41;;;;;;;7.40;2.53;;;;;;;14.62;100.00;98712.03;4937300;29;20106;-87
2022/09/29 01:00:11;;;;;;;8.13;2.17;;;;;;;14.67;100.00;98706.84;4936956;29;20043;-86
2022/09/29 01:02:51;;;;;;;11.65;2.42;;;;;;;14.84;100.00;98705.09;4936537;29;20098;-87
2022/09/29 01:05:24;;;;;;;8.50;2.17;;;;;;;14.89;100.00;98702.53;4920356;29;20035;-86
2022/09/29 01:07:50;;;;;;;10.07;2.00;;;;;;;15.00;100.00;98708.91;4945864;29;20036;-85
2022/09/29 01:10:16;;;;;;;8.73;1.75;;;;;;;15.07;100.00;98716.78;4948483;29;20477;-85
2022/09/29 01:12:45;;;;;;;11.60;2.20;;;;;;;14.93;100.00;98714.34;4953602;29;20019;-85
2022/09/29 01:15:15;;;;;;;8.95;2.00;;;;;;;14.88;100.00;98714.22;4958742;29;20043;-83
2022/09/29 01:17:40;;;;;;;11.65;2.20;;;;;;;14.68;100.00;98711.09;4958790;29;20044;-85
2022/09/29 01:20:19;;;;;;;10.95;2.15;;;;;;;14.70;100.00;98722.38;4947830;29;20039;-86
2022/09/29 01:23:09;;;;;;;8.20;2.13;;;;;;;14.57;100.00;98713.78;4919786;29;20683;-84
2022/09/29 01:25:58;;;;;;;12.25;2.20;;;;;;;14.60;100.00;98708.00;4937133;29;20027;-87
2022/09/29 01:28:47;;;;;;;13.23;2.70;;;;;;;14.75;100.00;98703.81;4936757;29;20396;-85
2022/09/29 01:31:13;;;;;;;7.07;1.95;;;;;;;14.77;100.00;98693.75;4931242;29;20126;-86
2022/09/29 01:33:56;;;;;;;16.58;2.45;;;;;;;14.88;100.00;98698.22;4936905;29;20134;-85
2022/09/29 01:36:43;;;;;;;9.07;2.00;;;;;;;14.66;100.00;98689.22;4936227;29;20065;-87
2022/09/29 01:39:26;;;;;;;6.72;2.25;;;;;;;14.69;100.00;98691.41;4936688;29;20127;-86
2022/09/29 01:41:59;;;;;;;12.05;2.15;;;;;;;14.48;100.00;98692.00;4919005;29;20178;-85
2022/09/29 01:44:27;;;;;;;13.05;2.53;;;;;;;14.43;100.00;98689.22;4936373;29;20051;-86
2022/09/29 01:47:23;;;;;;;7.35;2.08;;;;;;;14.34;100.00;98693.28;4936733;29;20058;-85
2022/09/29 01:49:59;;;;;;;14.63;2.70;;;;;;;14.55;100.00;98698.00;4935363;29;20497;-86
2022/09/29 01:52:31;;;;;;;5.65;2.05;;;;;;;14.55;100.00;98697.22;4955917;29;20067;-83
2022/09/29 01:55:00;;;;;;;14.43;3.00;;;;;;;14.36;100.00;98707.97;4953870;29;20075;-84
2022/09/29 01:57:49;;;;;;;22.25;2.50;;;;;;;14.24;100.00;98707.13;4937230;29;20103;-85
2022/09/29 02:00:17;;;;;;;10.07;2.45;;;;;;;14.19;100.00;98708.84;4935834;29;20495;-88
2022/09/29 02:03:07;;;;;;;6.82;2.33;;;;;;;13.85;100.00;98703.22;4935855;29;20063;-85
2022/09/29 02:05:40;;;;;;;11.40;2.50;;;;;;;13.81;100.00;98707.38;4936548;29;20032;-85
2022/09/29 02:08:14;;;;;;;10.32;3.03;;;;;;;13.76;100.00;98709.09;4935638;29;20036;-86
2022/09/29 02:10:57;;;;;;;9.57;2.90;;;;;;;13.60;100.00;98704.41;4918751;29;20035;-85
2022/09/29 02:13:23;;;;;;;12.40;2.80;;;;;;;13.70;100.00;98692.19;4935880;29;20139;-85
2022/09/29 02:15:54;;;;;;;13.70;2.70;;;;;;;13.81;100.00;98680.75;4940646;29;20499;-88
2022/09/29 02:18:29;;;;;;;9.68;2.78;;;;;;;14.01;100.00;98687.63;4922865;29;20038;-90
2022/09/29 02:20:55;;;;;;;12.05;2.83;;;;;;;13.80;100.00;98684.44;4939446;29;20039;-86
2022/09/29 02:23:20;;;;;;;14.68;2.90;;;;;;;13.74;100.00;98685.38;4939936;29;20163;-89
2022/09/29 02:25:49;;;;;;;8.85;2.78;;;;;;;13.88;100.00;98693.97;4940200;29;20389;-87
2022/09/29 02:28:16;;;;;;;11.75;2.35;;;;;;;13.71;100.00;98707.13;4922659;29;20035;-88
2022/09/29 02:30:42;;;;;;;15.05;2.97;;;;;;;13.41;100.00;98696.47;4939455;29;20027;-87
2022/09/29 02:33:21;;;;;;;14.50;3.15;;;;;;;13.22;100.00;98691.41;4923133;29;20036;-87
2022/09/29 02:36:10;;;;;;;12.15;2.85;;;;;;;13.22;100.00;98681.56;4939869;29;20051;-86
2022/09/29 02:39:22;;;;;;;12.02;2.50;;;;;;;13.30;100.00;98675.13;4936265;29;20135;-86
2022/09/29 02:42:41;;;;;;;17.20;3.17;;;;;;;13.28;100.00;98670.03;4930080;29;20047;-87
2022/09/29 02:45:23;;;;;;;12.55;3.17;;;;;;;13.30;100.00;98672.47;4899166;29;20048;-83
2022/09/29 02:47:54;;;;;;;17.13;3.63;;;;;;;13.18;100.00;98668.94;4939155;29;20074;-86
2022/09/29 02:50:32;;;;;;;10.00;2.97;;;;;;;13.25;100.00;98672.34;4939688;29;20066;-86
2022/09/29 02:53:23;;;;;;;11.55;3.22;;;;;;;13.29;100.00;98671.63;4939532;29;20043;-86
2022/09/29 02:56:08;;;;;;;15.68;3.65;;;;;;;13.05;100.00;98666.41;4939592;29;20082;-85
2022/09/29 02:58:50;;;;;;;15.57;3.60;;;;;;;13.07;100.00;98656.34;4939244;29;20519;-85
2022/09/29 03:01:16;;;;;;;7.80;2.90;;;;;;;12.97;100.00;98662.19;4922029;29;20036;-85
2022/09/29 03:03:42;;;;;;;26.38;4.18;;;;;;;13.14;100.00;98657.13;4938917;29;20071;-86
2022/09/29 03:06:09;;;;;;;19.25;4.25;;;;;;;13.04;100.00;98662.13;4922237;29;20059;-87
2022/09/29 03:08:35;;;;;;;12.05;3.53;;;;;;;13.06;100.00;98660.06;4943788;29;20582;-85
2022/09/29 03:11:00;;;;;;;10.98;3.30;;;;;;;13.11;100.00;98647.75;4942075;29;20050;-86
2022/09/29 03:13:26;;;;;;;22.10;3.97;;;;;;;13.21;100.00;98648.03;4938940;29;20116;-86
2022/09/29 03:15:52;;;;;;;13.95;4.65;;;;;;;13.37;100.00;98646.56;4939923;29;20114;-86
2022/09/29 03:18:18;;;;;;;8.30;4.07;;;;;;;13.39;100.00;98641.84;4938658;29;20047;-87
2022/09/29 03:20:43;;;;;;;13.25;3.83;;;;;;;13.42;100.00;98644.84;4938357;29;20167;-86
2022/09/29 03:23:09;;;;;;;9.63;3.65;;;;;;;13.54;100.00;98647.56;4938842;29;20043;-87
2022/09/29 03:25:34;;;;;;;11.63;3.72;;;;;;;13.40;100.00;98646.13;4938534;29;20449;-87
2022/09/29 03:28:00;;;;;;;12.57;3.45;;;;;;;13.41;100.00;98637.94;4939571;29;20421;-88
2022/09/29 03:30:25;;;;;;;9.90;3.75;;;;;;;13.62;100.00;98649.91;4921940;29;20031;-89
2022/09/29 03:32:51;;;;;;;12.80;4.35;;;;;;;13.55;100.00;98653.72;4938812;29;20050;-88
2022/09/29 03:35:17;;;;;;;15.98;4.57;;;;;;;13.38;100.00;98667.66;4938878;29;20370;-86
2022/09/29 03:37:42;;;;;;;13.70;4.80;;;;;;;13.31;100.00;98663.44;4938201;29;20060;-86
2022/09/29 03:40:09;;;;;;;9.75;4.30;;;;;;;13.31;100.00;98664.25;4938387;29;20090;-86
2022/09/29 03:42:34;;;;;;;10.55;4.20;;;;;;;13.21;100.00;98665.81;4921011;29;20039;-89
2022/09/29 03:45:00;;;;;;;12.82;4.38;;;;;;;13.13;100.00;98666.13;4938601;29;20044;-87
2022/09/29 03:47:25;;;;;;;14.18;4.68;;;;;;;13.20;100.00;98656.22;4921269;29;20117;-87
2022/09/29 03:49:51;;;;;;;12.43;4.25;;;;;;;13.21;100.00;98652.53;4938303;29;20219;-87
2022/09/29 03:52:16;;;;;;;9.43;3.88;;;;;;;13.31;100.00;98652.81;4938075;29;20449;-87
2022/09/29 03:54:42;;;;;;;14.73;4.70;;;;;;;13.44;100.00;98652.63;4938467;29;20071;-85
2022/09/29 03:57:07;;;;;;;11.60;4.22;;;;;;;13.50;100.00;98643.72;4938074;29;20127;-87
2022/09/29 03:59:33;;;;;;;13.70;4.28;;;;;;;13.48;100.00;98643.16;4938948;29;20047;-87
2022/09/29 04:01:58;;;;;;;15.65;4.60;;;;;;;13.48;100.00;98648.47;4921494;29;20044;-86
2022/09/29 04:04:24;;;;;;;13.60;4.50;;;;;;;13.40;100.00;98657.59;4938718;29;20082;-88
2022/09/29 04:06:49;;;;;;;13.85;4.43;;;;;;;13.47;100.00;98657.50;4938227;29;20027;-85
2022/09/29 04:09:15;;;;;;;10.73;4.22;;;;;;;13.44;100.00;98650.78;4938256;29;20036;-86
2022/09/29 04:11:40;;;;;;;17.13;4.25;;;;;;;13.36;100.00;98651.09;4938849;29;20043;-87
2022/09/29 04:14:06;;;;;;;14.70;3.78;;;;;;;13.50;100.00;98661.53;4941332;29;20039;-86
2022/09/29 04:16:32;;;;;;;12.75;4.55;;;;;;;13.42;100.00;98666.13;4938093;29;20497;-89
2022/09/29 04:18:57;;;;;;;14.27;4.28;;;;;;;13.39;100.00;98663.94;4939656;29;20043;-87
2022/09/29 04:21:23;;;;;;;20.80;4.90;;;;;;;13.39;100.00;98668.44;4922590;29;20083;-86
2022/09/29 04:23:48;;;;;;;12.63;4.00;;;;;;;13.57;100.00;98654.28;4941098;29;20536;-84
2022/09/29 04:26:15;;;;;;;17.15;4.28;;;;;;;13.47;100.00;98668.13;4950473;29;20031;-85
2022/09/29 04:28:40;;;;;;;14.00;4.45;;;;;;;13.46;100.00;98666.50;4961256;29;20023;-86
2022/09/29 04:31:06;;;;;;;12.65;4.53;;;;;;;13.38;100.00;98674.81;4961428;29;20048;-86
2022/09/29 04:33:32;;;;;;;24.85;3.88;;;;;;;13.48;100.00;98674.28;4953006;29;20055;-89
2022/09/29 04:35:58;;;;;;;12.68;3.83;;;;;;;13.45;100.00;98671.03;4921946;29;20044;-85
2022/09/29 04:38:24;;;;;;;16.38;3.80;;;;;;;13.44;100.00;98673.91;4939103;29;20064;-86
2022/09/29 04:40:49;;;;;;;15.65;4.93;;;;;;;13.46;100.00;98671.81;4939352;29;20508;-87
2022/09/29 04:43:15;;;;;;;22.38;4.60;;;;;;;13.48;100.00;98667.13;4925526;29;20048;-85
2022/09/29 04:46:03;;;;;;;23.25;3.67;;;;;;;13.57;100.00;98668.41;4941393;29;20027;-84
2022/09/29 04:48:28;;;;;;;14.63;4.90;;;;;;;13.62;100.00;98671.19;4942780;29;20059;-87
2022/09/29 04:50:54;;;;;;;12.75;4.05;;;;;;;13.61;100.00;98682.91;4947601;29;20052;-92
2022/09/29 04:53:41;;;;;;;14.73;3.92;;;;;;;13.65;100.00;98684.06;4942233;29;20059;-91
2022/09/29 04:56:20;;;;;;;12.48;3.72;;;;;;;13.66;100.00;98683.00;4942885;29;20046;-90
2022/09/29 04:58:47;;;;;;;6.30;2.60;;;;;;;13.41;100.00;98677.84;4942181;29;20047;-91
2022/09/29 05:01:18;;;;;;;9.25;3.40;;;;;;;13.33;100.00;98667.50;4939420;29;20051;-91
2022/09/29 05:04:15;;;;;;;15.48;4.00;;;;;;;13.48;100.00;98672.44;4912242;29;20107;-88
2022/09/29 05:06:46;;;;;;;13.75;4.93;;;;;;;13.53;100.00;98677.88;4940954;29;20059;-89
2022/09/29 05:09:13;;;;;;;18.42;4.80;;;;;;;13.63;100.00;98666.69;4956965;29;20044;-91
2022/09/29 05:11:40;;;;;;;13.52;4.15;;;;;;;13.76;100.00;98672.63;4957804;29;20035;-91
2022/09/29 05:14:19;;;;;;;17.92;4.85;;;;;;;13.71;100.00;98667.19;4960063;29;20047;-90
2022/09/29 05:17:07;;;;;;;12.73;4.20;;;;;;;13.69;100.00;98677.22;4958547;29;20082;-90
2022/09/29 05:19:39;;;;;;;12.52;4.25;;;;;;;13.92;100.00;98687.94;4959053;29;20040;-90
2022/09/29 05:23:08;;;;;;;14.38;4.10;;;;;;;13.93;100.00;98686.91;4930315;29;20087;-90
2022/09/29 05:25:50;;;;;;;15.27;4.40;;;;;;;13.90;100.00;98700.69;4930500;29;20059;-91
2022/09/29 05:28:17;;;;;;;9.65;4.35;;;;;;;14.16;100.00;98699.47;4928295;29;20030;-91
2022/09/29 05:30:42;;;;;;;13.93;4.78;;;;;;;14.11;100.00;98706.53;4956746;29;20170;-86
2022/09/29 05:33:08;;;;;;;12.35;4.43;;;;;;;14.12;100.00;98703.63;4940079;29;20039;-91
2022/09/29 05:35:39;;;;;;;13.55;4.05;;;;;;;14.22;100.00;98706.53;4957722;29;20039;-89
2022/09/29 05:38:08;;;;;;;19.85;5.20;;;;;;;14.20;100.00;98710.47;4940629;29;20031;-88
2022/09/29 05:40:37;;;;;;;16.92;4.25;;;;;;;14.17;100.00;98710.94;4940447;29;20137;-87
2022/09/29 05:43:04;;;;;;;13.18;4.53;;;;;;;14.17;100.00;98710.94;4950584;29;20400;-88
2022/09/29 05:45:30;;;;;;;15.32;5.45;;;;;;;14.27;100.00;98711.19;4938980;29;20028;-88
2022/09/29 05:47:56;;;;;;;16.33;4.88;;;;;;;14.36;100.00;98715.16;4937704;29;20118;-87
2022/09/29 05:50:24;;;;;;;13.10;4.07;;;;;;;14.52;100.00;98714.47;4919327;29;20126;-86
2022/09/29 05:52:53;;;;;;;13.25;3.83;;;;;;;14.76;100.00;98705.44;4929583;29;20128;-86
2022/09/29 05:55:19;;;;;;;18.58;4.03;;;;;;;14.94;100.00;98701.84;4931692;29;20031;-85
2022/09/29 05:57:48;;;;;;;14.40;3.60;;;;;;;15.34;100.00;98709.88;4928296;29;20453;-85
2022/09/29 06:00:14;;;;;;;17.70;4.85;;;;;;;15.19;100.00;98720.22;4931158;29;20343;-86
2022/09/29 06:02:39;;;;;;;8.65;4.10;;;;;;;15.36;100.00;98724.59;4917147;29;20046;-86
2022/09/29 06:05:05;;;;;;;17.25;4.28;;;;;;;15.43;100.00;98727.13;4933086;29;20027;-85
2022/09/29 06:07:30;;;;;;;15.85;3.60;;;;;;;15.23;100.00;98727.53;4925271;29;20031;-86
2022/09/29 06:09:56;;;;;;;11.73;3.83;;;;;;;15.27;100.00;98726.03;4942218;29;20469;-85
2022/09/29 06:12:21;;;;;;;17.95;4.13;;;;;;;15.70;100.00;98728.22;4942419;29;20031;-86
2022/09/29 06:14:47;;;;;;;10.13;3.75;;;;;;;15.69;100.00;98737.28;4925112;29;20067;-87
2022/09/29 06:17:13;;;;;;;9.55;3.78;;;;;;;15.59;100.00;98731.75;4906880;29;20055;-86
2022/09/29 06:19:39;;;;;;;9.48;3.70;;;;;;;15.65;100.00;98730.78;4924609;29;20051;-85
2022/09/29 06:22:04;;;;;;;26.13;10.35;;;;;;;15.54;100.00;98728.19;4926563;29;20044;-85
2022/09/29 06:24:30;;;;;;;24.20;8.38;;;;;;;15.68;100.00;98714.28;4926634;29;20394;-86
2022/09/29 06:26:55;;;;;;;18.60;7.45;;;;;;;15.75;100.00;98725.63;4922504;29;20036;-88
2022/09/29 06:29:21;;;;;;;20.45;8.20;;;;;;;15.95;100.00;98734.03;4900802;29;20036;-86
2022/09/29 06:31:46;;;;;;;14.35;5.72;;;;;;;16.39;100.00;98731.56;4900410;29;20043;-87
2022/09/29 06:34:12;;;;;;;15.80;6.30;;;;;;;16.49;100.00;98731.72;4920040;29;20035;-85
2022/09/29 06:39:25;;;;;;;15.45;4.60;;;;;;;16.13;100.00;98732.19;4900511;29;20044;-86
2022/09/29 06:41:53;;;;;;;9.05;4.25;;;;;;;16.24;100.00;98725.97;4920444;29;20043;-84
2022/09/29 06:44:20;;;;;;;10.50;4.28;;;;;;;16.68;100.00;98735.78;4920167;29;20498;-85
2022/09/29 06:46:46;;;;;;;18.65;4.45;;;;;;;16.95;100.00;98731.38;4888309;29;20041;-84
2022/09/29 06:49:14;;;;;;;12.85;4.07;;;;;;;17.28;100.00;98743.84;4921040;29;20048;-85
2022/09/29 06:51:45;;;;;;;12.43;3.63;;;;;;;17.35;100.00;98735.63;4903347;29;20044;-86
2022/09/29 06:54:16;;;;;;;17.00;3.30;;;;;;;17.37;100.00;98733.50;4919354;29;20072;-86
2022/09/29 06:56:45;;;;;;;20.73;3.75;;;;;;;17.64;100.00;98742.44;4920270;29;20084;-83
2022/09/29 06:59:13;;;;;;;12.25;3.65;;;;;;;17.71;100.00;98735.03;4922276;29;20028;-86
2022/09/29 07:01:40;;;;;;;11.00;3.30;;;;;;;18.17;100.00;98728.25;4924924;29;20410;-87
2022/09/29 07:04:08;;;;;;;18.02;4.15;;;;;;;18.09;100.00;98742.13;4927265;29;20031;-85
2022/09/29 07:06:34;;;;;;;11.85;3.67;;;;;;;18.10;100.00;98738.34;4944024;29;20036;-85
2022/09/29 07:09:02;;;;;;;11.75;4.32;;;;;;;18.21;100.00;98741.94;4943924;29;20048;-87
2022/09/29 07:11:28;;;;;;;18.83;4.40;;;;;;;18.30;100.00;98743.91;4927541;29;20055;-84
2022/09/29 07:13:54;;;;;;;13.23;5.32;;;;;;;18.26;100.00;98734.75;4909946;29;20028;-85
2022/09/29 07:16:22;;;;;;;13.43;4.88;;;;;;;18.01;100.00;98748.75;4906213;29;20050;-85
2022/09/29 07:18:48;;;;;;;21.88;5.57;;;;;;;18.25;100.00;98756.47;4922872;29;20047;-86
2022/09/29 07:21:16;;;;;;;17.45;6.05;;;;;;;18.26;100.00;98742.78;4922420;29;20058;-84
2022/09/29 07:23:42;;;;;;;17.90;5.35;;;;;;;18.54;100.00;98742.53;4922148;29;20044;-84
2022/09/29 07:26:08;;;;;;;17.10;5.28;;;;;;;18.81;100.00;98739.78;4905320;29;20043;-86
2022/09/29 07:28:34;;;;;;;16.23;5.88;;;;;;;18.21;100.00;98741.94;4906566;29;20032;-87
2022/09/29 07:31:05;;;;;;;17.73;6.60;;;;;;;18.23;100.00;98731.78;4922374;29;20036;-85
2022/09/29 07:33:31;;;;;;;22.25;7.95;;;;;;;18.43;100.00;98738.13;4907186;29;20039;-85
2022/09/29 07:35:59;;;;;;;17.73;6.90;;;;;;;18.44;100.00;98737.06;4943479;29;20036;-86
2022/09/29 07:38:29;;;;;;;11.43;6.40;;;;;;;18.63;100.00;98744.75;4941433;29;20032;-85
2022/09/29 07:41:02;;;;;;;17.95;7.70;;;;;;;18.16;100.00;98747.28;4948596;29;20166;-87
2022/09/29 07:43:29;;;;;;;18.25;7.90;;;;;;;18.52;100.00;98751.91;4944855;29;20568;-84
2022/09/29 07:45:55;;;;;;;17.70;7.25;;;;;;;18.98;100.00;98761.91;4927222;29;20034;-85
2022/09/29 07:48:21;;;;;;;25.40;7.20;;;;;;;19.65;100.00;98766.56;4972961;29;20035;-84
2022/09/29 07:50:46;;;;;;;17.45;7.85;;;;;;;19.20;100.00;98775.19;4954558;29;20170;-84
2022/09/29 07:53:12;;;;;;;21.23;7.70;;;;;;;18.94;100.00;98774.22;4955954;29;20079;-86
2022/09/29 07:55:38;;;;;;;18.45;7.60;;;;;;;18.98;100.00;98772.66;4958243;29;20046;-84
2022/09/29 07:58:04;;;;;;;28.13;8.15;;;;;;;18.52;100.00;98765.34;4963524;29;20244;-84
2022/09/29 08:00:31;;;;;;;16.65;7.82;;;;;;;19.09;100.00;98773.50;4951033;29;20095;-83
2022/09/29 08:03:01;;;;;;;29.00;8.35;;;;;;;19.56;100.00;98768.13;4961963;29;20036;-85
2022/09/29 08:05:27;;;;;;;29.42;8.45;;;;;;;19.82;100.00;98775.19;4946547;29;20131;-84
2022/09/29 08:07:52;;;;;;;40.22;8.05;;;;;;;19.98;100.00;98776.06;4929320;29;20039;-85
2022/09/29 08:10:19;;;;;;;33.80;8.15;;;;;;;20.02;100.00;98783.31;4957456;29;20031;-87
2022/09/29 08:12:44;;;;;;;32.88;8.50;;;;;;;20.27;100.00;98768.34;4942070;29;20492;-86
2022/09/29 08:15:10;;;;;;;18.52;6.97;;;;;;;20.78;100.00;98771.88;4949298;29;20036;-88
2022/09/29 08:17:35;;;;;;;26.15;7.20;;;;;;;20.56;100.00;98761.38;4935285;29;20043;-86
2022/09/29 08:20:01;;;;;;;24.63;7.15;;;;;;;21.11;100.00;98769.41;4950540;29;20036;-86
2022/09/29 08:22:26;;;;;;;17.98;7.22;;;;;;;20.10;100.00;98769.38;4938754;29;20514;-85
2022/09/29 08:24:52;;;;;;;22.52;7.45;;;;;;;20.38;100.00;98776.16;4933347;29;20027;-85
2022/09/29 08:27:17;;;;;;;17.10;6.90;;;;;;;20.50;100.00;98784.78;4947229;29;20478;-85
2022/09/29 08:29:43;;;;;;;20.08;6.40;;;;;;;20.81;100.00;98780.22;4948971;29;20074;-87
2022/09/29 08:32:09;;;;;;;19.50;7.68;;;;;;;21.03;100.00;98775.31;4943734;29;20040;-85
2022/09/29 08:34:35;;;;;;;25.30;6.80;;;;;;;21.52;100.00;98785.44;4953468;29;20035;-85
2022/09/29 08:37:01;;;;;;;18.85;6.90;;;;;;;20.56;100.00;98785.59;4921132;29;20039;-86
2022/09/29 08:39:27;;;;;;;16.35;6.70;;;;;;;20.79;100.00;98771.56;4938232;29;20146;-85
2022/09/29 08:41:55;;;;;;;20.45;7.22;;;;;;;21.47;100.00;98770.13;4949281;29;20038;-85
2022/09/29 08:44:23;;;;;;;18.92;7.75;;;;;;;21.27;100.00;98761.28;4939491;29;20481;-84
2022/09/29 08:47:02;;;;;;;22.58;8.43;;;;;;;21.51;100.00;98768.47;4962222;29;20438;-84
2022/09/29 08:49:41;;;;;;;18.85;9.05;;;;;;;22.78;94.94;98771.22;4943990;29;20042;-85
2022/09/29 08:52:22;;;;;;;22.33;10.27;;;;;;;22.82;93.66;98785.78;4948266;29;20035;-85
2022/09/29 08:54:52;;;;;;;19.15;9.88;;;;;;;22.52;92.74;98780.59;4947754;29;20541;-84
2022/09/29 08:57:19;;;;;;;26.08;9.23;;;;;;;22.32;95.62;98775.34;4911724;29;20422;-83
2022/09/29 09:00:06;;;;;;;19.05;8.68;;;;;;;22.44;93.90;98775.78;4924189;29;20448;-87
2022/09/29 09:02:51;;;;;;;20.30;9.32;;;;;;;22.21;97.04;98777.31;4943003;29;20059;-84
2022/09/29 09:05:53;;;;;;;32.90;10.18;;;;;;;22.93;93.03;98773.00;4939365;29;20115;-84
2022/09/29 09:08:50;;;;;;;20.95;10.73;;;;;;;23.22;92.03;98779.19;4937139;29;20039;-85
2022/09/29 09:11:31;;;;;;;25.20;10.90;;;;;;;23.77;89.93;98782.34;4937139;29;20556;-83
2022/09/29 09:14:27;;;;;;;23.83;11.05;;;;;;;24.03;87.70;98776.28;4937647;29;20570;-90
2022/09/29 09:17:02;;;;;;;24.10;10.85;;;;;;;23.72;88.20;98763.47;4921440;29;20036;-87
2022/09/29 09:20:09;;;;;;;23.60;11.38;;;;;;;24.38;83.70;98760.66;4937389;29;20080;-86
2022/09/29 09:22:47;;;;;;;20.77;10.38;;;;;;;24.46;83.64;98768.13;4866229;29;20126;-89
2022/09/29 09:25:53;;;;;;;20.92;11.73;;;;;;;25.02;80.42;98766.09;4933408;29;20044;-84
2022/09/29 09:28:30;;;;;;;18.90;12.18;;;;;;;24.83;80.42;98778.91;4944119;29;20039;-85
2022/09/29 09:31:11;;;;;;;22.55;13.00;;;;;;;24.98;79.53;98770.53;4939030;29;20047;-84
2022/09/29 09:34:01;;;;;;;24.30;12.55;;;;;;;25.27;78.53;98772.16;4922106;29;20056;-85
2022/09/29 09:36:59;;;;;;;25.27;13.73;;;;;;;26.00;75.58;98774.75;4887829;29;20041;-84
2022/09/29 09:39:35;;;;;;;34.10;15.15;;;;;;;25.12;80.29;98765.91;4891114;29;20041;-84
2022/09/29 09:42:13;;;;;;;24.00;14.70;;;;;;;25.51;78.43;98772.81;4894549;29;20049;-88
2022/09/29 09:44:50;;;;;;;28.80;14.80;;;;;;;25.45;79.33;98773.97;4900666;29;20117;-85
2022/09/29 09:47:25;;;;;;;29.88;16.20;;;;;;;25.13;80.89;98772.94;4892988;29;20083;-84
2022/09/29 09:49:56;;;;;;;24.20;15.57;;;;;;;24.27;85.10;98761.91;4952455;29;20106;-83
2022/09/29 09:52:40;;;;;;;33.65;15.88;;;;;;;24.53;87.61;98757.69;4958575;29;20028;-85
2022/09/29 09:55:14;;;;;;;23.85;13.48;;;;;;;24.74;84.89;98763.59;4959333;28;20051;-86
2022/09/29 09:58:05;;;;;;;27.58;13.18;;;;;;;25.09;80.39;98752.94;4930816;29;20564;-88
2022/09/29 10:00:49;;;;;;;25.67;14.07;;;;;;;25.08;80.80;98745.94;4944237;29;20051;-84
2022/09/29 10:03:15;;;;;;;27.65;12.73;;;;;;;24.95;78.62;98744.00;4943023;29;20035;-81
2022/09/29 10:05:46;;;;;;;21.70;12.23;;;;;;;24.54;80.85;98743.06;4944458;29;20050;-80
2022/09/29 10:08:20;;;;;;;24.73;12.15;;;;;;;25.14;78.32;98749.34;4937374;29;20040;-85
2022/09/29 10:10:48;;;;;;;21.65;12.48;;;;;;;25.16;78.87;98744.41;4936313;29;20044;-86
2022/09/29 10:13:15;;;;;;;20.00;12.32;;;;;;;25.15;78.57;98732.78;4923178;29;20449;-86
2022/09/29 10:15:54;;;;;;;22.75;12.85;;;;;;;25.51;77.42;98734.81;4936547;29;20039;-86
2022/09/29 10:18:37;;;;;;;23.35;11.80;;;;;;;25.42;79.47;98723.81;4937262;29;20389;-89
2022/09/29 10:21:03;;;;;;;23.95;11.98;;;;;;;26.35;73.50;98727.78;4935820;29;20065;-84
2022/09/29 10:23:31;;;;;;;18.23;10.32;;;;;;;26.13;73.75;98722.31;4934916;29;20525;-85
2022/09/29 10:26:24;;;;;;;19.52;10.05;;;;;;;26.32;73.30;98714.00;4933778;29;20047;-86
2022/09/29 10:28:57;;;;;;;30.27;10.88;;;;;;;27.88;66.77;98723.34;4934341;29;20039;-84
2022/09/29 10:31:29;;;;;;;19.98;9.40;;;;;;;28.71;63.96;98713.09;4918866;29;20507;-86
2022/09/29 10:34:11;;;;;;;17.73;8.50;;;;;;;29.60;52.26;98720.28;4918869;29;20036;-86
2022/09/29 10:36:54;;;;;;;13.52;6.45;;;;;;;29.06;50.95;98706.41;4923038;29;20127;-89
2022/09/29 10:39:33;;;;;;;16.05;6.00;;;;;;;28.61;50.78;98695.13;4909869;29;20039;-90
2022/09/29 10:41:59;;;;;;;9.50;5.18;;;;;;;29.40;48.51;98705.44;4891154;29;20032;-89
2022/09/29 10:44:31;;;;;;;20.55;5.88;;;;;;;30.25;45.70;98711.47;4923293;29;20051;-88
2022/09/29 10:46:57;;;;;;;14.10;5.07;;;;;;;31.27;39.33;98701.38;4905517;29;20127;-90
2022/09/29 10:49:27;;;;;;;14.63;4.88;;;;;;;30.49;40.71;98716.28;4922669;29;20040;-88
2022/09/29 10:52:05;;;;;;;10.20;3.03;;;;;;;29.66;40.74;98703.34;4904838;29;20393;-90
2022/09/29 10:54:36;;;;;;;11.45;2.95;;;;;;;32.11;35.73;98707.91;4920904;29;20131;-89
2022/09/29 10:57:15;;;;;;;11.53;1.90;;;;;;;31.08;37.05;98692.94;4920573;29;20137;-89
2022/09/29 10:59:48;;;;;;;5.13;1.73;;;;;;;31.36;33.91;98693.03;4904393;29;20036;-90
2022/09/29 11:02:38;;;;;;;6.25;0.85;;;;;;;29.02;34.09;98691.81;4921175;29;20044;-89
2022/09/29 11:05:20;;;;;;;3.22;0.93;;;;;;;27.78;38.24;98691.00;4921044;29;20067;-88
2022/09/29 11:07:47;;;;;;;8.13;0.80;;;;;;;28.22;36.87;98695.34;4921577;29;20036;-90
2022/09/29 11:10:37;;;;;;;7.30;1.25;;;;;;;29.16;35.83;98695.13;4928094;29;20035;-86
2022/09/29 11:13:26;;;;;;;10.95;1.30;;;;;;;29.06;35.27;98695.50;4921279;29;20509;-86
2022/09/29 11:15:52;;;;;;;6.45;1.20;;;;;;;27.31;39.43;98705.44;4934258;29;20398;-87
2022/09/29 11:18:33;;;;;;;2.88;1.10;;;;;;;25.87;41.90;98703.09;4941081;29;20038;-87
2022/09/29 11:21:22;;;;;;;6.38;1.30;;;;;;;26.63;40.44;98690.41;4934855;29;20040;-88
2022/09/29 11:24:48;;;;;;;2.90;1.13;;;;;;;26.07;42.28;98688.25;4940648;29;20024;-86
2022/09/29 11:27:49;;;;;;;5.75;0.90;;;;;;;26.65;41.77;98678.09;4881140;29;20076;-87
2022/09/29 11:30:25;;;;;;;7.18;1.20;;;;;;;27.78;38.09;98688.25;4886980;29;20052;-88
2022/09/29 11:33:26;;;;;;;7.88;1.95;;;;;;;27.08;40.57;98686.47;4874644;29;20048;-88
2022/09/29 11:35:55;;;;;;;6.93;0.70;;;;;;;25.76;40.07;98693.56;4882175;29;20048;-89
2022/09/29 11:39:00;;;;;;;5.63;0.95;;;;;;;25.29;41.64;98688.59;4894747;29;20104;-88
2022/09/29 11:41:31;;;;;;;5.70;0.80;;;;;;;24.77;42.37;98676.28;4910619;29;20041;-87
2022/09/29 11:44:20;;;;;;;4.35;0.80;;;;;;;24.21;44.70;98684.59;4902683;29;20036;-88
2022/09/29 11:47:04;;;;;;;4.10;0.60;;;;;;;23.63;47.49;98690.31;4903977;29;20071;-88